createdAt,value
2022-08-05T00:01:36.176Z,52.43
2022-08-05T00:04:17.660Z,52.23
2022-08-05T00:06:51.802Z,52.25
2022-08-05T00:09:20.328Z,52.35
2022-08-05T00:11:55.880Z,52.57
2022-08-05T00:14:29.150Z,52.42
2022-08-05T00:17:02.080Z,52.51
2022-08-05T00:19:33.241Z,52.65
2022-08-05T00:22:04.239Z,52.93
2022-08-05T00:24:32.776Z,52.73
2022-08-05T00:27:04.724Z,52.92
2022-08-05T00:29:39.111Z,52.80
2022-08-05T00:32:12.362Z,53.08
2022-08-05T00:35:03.807Z,53.39
2022-08-05T00:37:51.358Z,53.44
2022-08-05T00:40:27.408Z,53.60
2022-08-05T00:42:57.976Z,53.56
2022-08-05T00:45:38.951Z,53.59
2022-08-05T00:48:11.574Z,53.64
2022-08-05T00:50:42.061Z,53.74
2022-08-05T00:54:01.140Z,53.85
2022-08-05T00:56:08.438Z,53.86
2022-08-05T00:58:36.937Z,54.01
2022-08-05T01:01:08.664Z,54.16
2022-08-05T01:03:37.520Z,54.14
2022-08-05T01:06:05.786Z,54.26
2022-08-05T01:08:44.681Z,54.39
2022-08-05T01:11:22.204Z,54.57
2022-08-05T01:14:08.567Z,54.72
2022-08-05T01:16:41.802Z,54.70
2022-08-05T01:19:46.225Z,54.61
2022-08-05T01:22:27.982Z,54.95
2022-08-05T01:25:39.924Z,55.00
2022-08-05T01:28:33.172Z,55.22
2022-08-05T01:31:05.766Z,55.48
2022-08-05T01:33:40.771Z,55.31
2022-08-05T01:36:16.216Z,55.49
2022-08-05T01:38:48.441Z,55.56
2022-08-05T01:41:21.840Z,55.68
2022-08-05T01:43:52.430Z,55.73
2022-08-05T01:46:42.417Z,55.96
2022-08-05T01:49:23.933Z,56.23
2022-08-05T01:51:58.755Z,56.05
2022-08-05T01:54:33.254Z,56.24
2022-08-05T01:58:11.648Z,56.44
2022-08-05T01:59:57.946Z,56.39
2022-08-05T02:02:29.965Z,56.45
2022-08-05T02:05:01.247Z,56.68
2022-08-05T02:07:31.918Z,56.78
2022-08-05T02:10:02.120Z,56.77
2022-08-05T02:12:35.970Z,56.79
2022-08-05T02:15:12.354Z,57.02
2022-08-05T02:18:31.484Z,57.15
2022-08-05T02:20:41.666Z,57.22
2022-08-05T02:23:13.519Z,57.23
2022-08-05T02:25:49.848Z,57.30
2022-08-05T02:28:28.395Z,57.34
2022-08-05T02:31:07.531Z,57.68
2022-08-05T02:33:40.736Z,57.80
2022-08-05T02:36:13.751Z,57.91
2022-08-05T02:38:53.636Z,57.99
2022-08-05T02:41:28.561Z,58.08
2022-08-05T02:44:13.096Z,58.17
2022-08-05T02:46:58.909Z,58.25
2022-08-05T02:49:36.411Z,58.40
2022-08-05T02:52:09.209Z,58.48
2022-08-05T02:54:41.062Z,58.66
2022-08-05T02:58:11.605Z,58.69
2022-08-05T03:00:01.592Z,58.70
2022-08-05T03:02:35.909Z,58.95
2022-08-05T03:05:05.273Z,59.12
2022-08-05T03:07:59.133Z,59.32
2022-08-05T03:10:25.229Z,59.20
2022-08-05T03:12:54.289Z,59.19
2022-08-05T03:15:24.155Z,59.41
2022-08-05T03:17:55.861Z,59.39
2022-08-05T03:20:25.050Z,59.71
2022-08-05T03:22:57.063Z,59.65
2022-08-05T03:26:02.652Z,59.73
2022-08-05T03:28:18.704Z,60.06
2022-08-05T03:30:49.433Z,60.13
2022-08-05T03:33:19.540Z,60.21
2022-08-05T03:35:49.891Z,60.18
2022-08-05T03:38:32.916Z,60.34
2022-08-05T03:41:10.979Z,60.57
2022-08-05T03:44:09.068Z,60.42
2022-08-05T03:46:30.060Z,60.57
2022-08-05T03:49:02.218Z,60.81
2022-08-05T03:52:49.413Z,60.80
2022-08-05T03:55:34.740Z,60.86
2022-08-05T03:57:41.150Z,60.86
2022-08-05T04:00:15.587Z,61.24
2022-08-05T04:02:57.578Z,61.08
2022-08-05T04:05:33.800Z,61.41
2022-08-05T04:08:05.695Z,61.44
2022-08-05T04:10:44.835Z,61.51
2022-08-05T04:13:13.217Z,61.46
2022-08-05T04:15:52.737Z,61.67
2022-08-05T04:18:30.099Z,61.75
2022-08-05T04:20:59.616Z,61.96
2022-08-05T04:23:57.204Z,61.97
2022-08-05T04:26:18.810Z,61.96
2022-08-05T04:28:50.811Z,62.17
2022-08-05T04:31:21.088Z,62.44
2022-08-05T04:33:54.438Z,62.17
2022-08-05T04:36:49.915Z,62.50
2022-08-05T04:39:18.701Z,62.49
2022-08-05T04:41:48.160Z,62.64
2022-08-05T04:44:29.651Z,62.84
2022-08-05T04:46:59.135Z,62.73
2022-08-05T04:50:01.080Z,62.90
2022-08-05T04:52:34.568Z,62.85
2022-08-05T04:55:14.303Z,63.07
2022-08-05T04:57:47.716Z,63.25
2022-08-05T05:00:17.486Z,63.21
2022-08-05T05:02:45.480Z,63.35
2022-08-05T05:05:26.016Z,63.47
2022-08-05T05:08:02.122Z,63.39
2022-08-05T05:10:33.263Z,63.64
2022-08-05T05:13:04.710Z,63.62
2022-08-05T05:16:01.786Z,63.70
2022-08-05T05:18:31.601Z,63.89
2022-08-05T05:21:07.318Z,64.05
2022-08-05T05:24:02.271Z,64.21
2022-08-05T05:26:32.810Z,64.41
2022-08-05T05:29:02.605Z,64.15
2022-08-05T05:31:41.894Z,64.54
2022-08-05T05:34:15.525Z,64.54
2022-08-05T05:36:47.060Z,64.58
2022-08-05T05:39:19.127Z,64.81
2022-08-05T05:41:54.558Z,64.93
2022-08-05T05:44:36.777Z,65.03
2022-08-05T05:47:21.370Z,65.18
2022-08-05T05:49:56.579Z,65.15
2022-08-05T05:52:28.446Z,65.41
2022-08-05T05:55:01.814Z,65.49
2022-08-05T05:57:43.023Z,65.55
2022-08-05T06:00:27.716Z,65.71
2022-08-05T06:03:01.645Z,65.91
2022-08-05T06:05:29.834Z,65.95
2022-08-05T06:08:01.962Z,66.02
2022-08-05T06:10:36.636Z,66.31
2022-08-05T06:13:08.108Z,66.27
2022-08-05T06:16:28.241Z,66.55
2022-08-05T06:18:30.960Z,66.56
2022-08-05T06:21:00.030Z,66.58
2022-08-05T06:23:43.790Z,66.85
2022-08-05T06:26:21.705Z,66.83
2022-08-05T06:28:55.999Z,67.04
2022-08-05T06:31:30.400Z,67.19
2022-08-05T06:34:07.279Z,67.13
2022-08-05T06:36:58.030Z,67.36
2022-08-05T06:39:27.733Z,67.42
2022-08-05T06:41:59.142Z,67.60
2022-08-05T06:44:27.746Z,67.67
2022-08-05T06:46:56.214Z,67.79
2022-08-05T06:50:00.552Z,67.88
2022-08-05T06:52:38.164Z,67.75
2022-08-05T06:55:02.529Z,68.06
2022-08-05T06:58:02.844Z,68.20
2022-08-05T07:00:22.475Z,68.49
2022-08-05T07:02:56.505Z,68.15
2022-08-05T07:05:31.878Z,68.56
2022-08-05T07:08:06.476Z,68.55
2022-08-05T07:10:52.952Z,68.59
2022-08-05T07:13:57.946Z,68.92
2022-08-05T07:18:01.836Z,69.03
2022-08-05T07:22:29.134Z,68.93
2022-08-05T07:25:22.995Z,69.08
2022-08-05T07:27:58.853Z,69.18
2022-08-05T07:30:33.709Z,69.23
2022-08-05T07:33:08.811Z,69.39
2022-08-05T07:36:03.728Z,69.45
2022-08-05T07:38:33.871Z,69.31
2022-08-05T07:42:08.865Z,69.55
2022-08-05T07:43:59.982Z,69.51
2022-08-05T07:46:31.749Z,69.71
2022-08-05T07:49:05.755Z,69.52
2022-08-05T07:51:48.886Z,69.84
2022-08-05T07:54:30.980Z,69.80
2022-08-05T07:57:17.576Z,69.72
2022-08-05T07:59:51.512Z,69.81
2022-08-05T08:02:26.720Z,69.90
2022-08-05T08:05:02.892Z,69.79
2022-08-05T08:07:39.772Z,69.94
2022-08-05T08:10:20.905Z,69.88
2022-08-05T08:12:49.962Z,69.73
2022-08-05T08:15:18.222Z,70.02
2022-08-05T08:18:14.418Z,69.69
2022-08-05T08:21:02.410Z,69.75
2022-08-05T08:24:03.053Z,69.67
2022-08-05T08:26:29.555Z,69.75
2022-08-05T08:29:22.296Z,69.62
2022-08-05T08:31:49.077Z,70.08
2022-08-05T08:34:30.350Z,69.72
2022-08-05T08:37:53.505Z,69.53
2022-08-05T08:40:34.721Z,69.83
2022-08-05T08:45:17.126Z,69.72
2022-08-05T08:45:55.954Z,69.89
2022-08-05T08:48:41.677Z,69.95
2022-08-05T08:52:01.669Z,69.53
2022-08-05T08:54:09.626Z,69.43
2022-08-05T08:56:47.798Z,69.56
2022-08-05T08:59:20.905Z,69.24
2022-08-05T09:01:57.238Z,69.52
2022-08-05T09:04:30.350Z,69.53
2022-08-05T09:07:00.403Z,69.21
2022-08-05T09:09:35.365Z,69.14
2022-08-05T09:12:14.416Z,68.93
2022-08-05T09:14:58.017Z,69.11
2022-08-05T09:17:42.591Z,69.03
2022-08-05T09:20:20.818Z,68.97
2022-08-05T09:23:22.105Z,69.00
2022-08-05T09:26:02.329Z,68.83
2022-08-05T09:28:34.310Z,68.69
2022-08-05T09:31:22.230Z,68.52
2022-08-05T09:33:56.614Z,68.44
2022-08-05T09:36:27.803Z,68.31
2022-08-05T09:39:18.125Z,68.57
2022-08-05T09:41:58.575Z,68.42
2022-08-05T09:44:37.963Z,68.08
2022-08-05T09:47:12.515Z,68.01
2022-08-05T09:50:01.185Z,68.03
2022-08-05T09:52:32.930Z,67.92
2022-08-05T09:55:06.250Z,67.78
2022-08-05T09:57:54.772Z,67.40
2022-08-05T10:00:26.805Z,67.65
2022-08-05T10:02:58.499Z,67.35
2022-08-05T10:05:29.264Z,67.26
2022-08-05T10:08:35.142Z,67.33
2022-08-05T10:10:54.259Z,66.85
2022-08-05T10:13:46.283Z,66.91
2022-08-05T10:16:34.190Z,66.72
2022-08-05T10:19:09.148Z,66.61
2022-08-05T10:21:39.982Z,66.89
2022-08-05T10:24:13.261Z,66.32
2022-08-05T10:26:49.205Z,66.50
2022-08-05T10:29:24.134Z,66.28
2022-08-05T10:32:52.646Z,66.02
2022-08-05T10:35:02.333Z,65.83
2022-08-05T10:37:40.285Z,65.93
2022-08-05T10:40:28.053Z,65.39
2022-08-05T10:57:38.722Z,64.69
2022-08-05T11:00:24.219Z,64.98
2022-08-05T11:03:23.134Z,64.72
2022-08-05T11:06:15.913Z,64.54
2022-08-05T11:09:32.285Z,64.60
2022-08-05T11:12:55.178Z,64.39
2022-08-05T11:15:59.201Z,64.34
2022-08-05T11:18:30.141Z,64.31
2022-08-05T11:21:02.653Z,63.73
2022-08-05T11:24:03.129Z,63.72
2022-08-05T11:26:28.299Z,63.65
2022-08-05T11:29:12.700Z,63.65
2022-08-05T11:31:54.478Z,63.42
2022-08-05T11:34:51.739Z,63.24
2022-08-05T11:38:28.946Z,63.36
2022-08-05T11:41:35.061Z,63.08
2022-08-05T11:44:05.606Z,63.12
2022-08-05T11:46:37.857Z,63.09
2022-08-05T11:49:27.822Z,62.89
2022-08-05T11:51:57.602Z,62.76
2022-08-05T11:54:34.526Z,62.79
2022-08-05T11:57:08.062Z,62.87
2022-08-05T11:59:53.320Z,62.69
2022-08-05T12:02:30.561Z,62.75
2022-08-05T12:05:06.774Z,62.70
2022-08-05T12:08:09.492Z,62.69
2022-08-05T12:10:38.542Z,62.77
2022-08-05T12:13:47.873Z,62.71
2022-08-05T12:16:18.966Z,62.82
2022-08-05T12:18:48.994Z,62.87
2022-08-05T12:21:38.937Z,62.62
2022-08-05T12:24:17.381Z,62.49
2022-08-05T12:26:48.634Z,62.49
2022-08-05T12:29:25.204Z,62.71
2022-08-05T12:32:02.257Z,62.81
2022-08-05T12:34:33.944Z,62.60
2022-08-05T12:37:16.951Z,62.85
2022-08-05T12:39:52.113Z,62.92
2022-08-05T12:42:25.135Z,62.57
2022-08-05T12:45:03.954Z,62.62
2022-08-05T12:47:43.522Z,62.61
2022-08-05T12:50:27.621Z,63.00
2022-08-05T12:53:00.559Z,62.65
2022-08-05T12:55:32.607Z,62.92
2022-08-05T12:58:48.202Z,62.90
2022-08-05T13:02:00.257Z,62.69
2022-08-05T13:03:43.279Z,62.63
2022-08-05T13:06:19.882Z,62.61
2022-08-05T13:08:52.628Z,62.84
2022-08-05T13:12:03.056Z,62.90
2022-08-05T13:14:24.808Z,63.03
2022-08-05T13:17:04.672Z,63.07
2022-08-05T13:19:52.149Z,63.15
2022-08-05T13:22:28.263Z,63.15
2022-08-05T13:25:05.871Z,63.06
2022-08-05T13:27:40.963Z,63.42
2022-08-05T13:30:34.415Z,63.43
2022-08-05T13:33:01.540Z,63.36
2022-08-05T13:35:43.101Z,63.64
2022-08-05T13:38:30.636Z,63.58
2022-08-05T13:41:05.003Z,63.72
2022-08-05T13:43:43.382Z,63.89
2022-08-05T13:46:16.552Z,64.03
2022-08-05T13:49:05.477Z,64.01
2022-08-05T13:51:41.010Z,64.16
2022-08-05T13:54:15.463Z,64.22
2022-08-05T13:56:52.061Z,64.45
2022-08-05T13:59:24.217Z,64.54
2022-08-05T14:01:58.979Z,64.72
2022-08-05T14:04:49.933Z,64.73
2022-08-05T14:07:25.727Z,64.92
2022-08-05T14:10:12.327Z,65.16
2022-08-05T14:12:43.079Z,65.26
2022-08-05T14:16:07.759Z,65.35
2022-08-05T14:18:15.232Z,65.50
2022-08-05T14:20:54.918Z,65.64
2022-08-05T14:23:25.681Z,65.58
2022-08-05T14:25:58.209Z,65.88
2022-08-05T14:28:29.900Z,65.91
2022-08-05T14:30:59.830Z,66.06
2022-08-05T14:33:32.442Z,66.23
2022-08-05T14:36:21.368Z,66.43
2022-08-05T14:38:50.367Z,66.45
2022-08-05T14:41:18.587Z,66.62
2022-08-05T14:43:59.215Z,66.94
2022-08-05T14:46:31.578Z,66.91
2022-08-05T14:49:56.302Z,67.12
2022-08-05T14:52:42.939Z,67.19
2022-08-05T14:55:13.961Z,67.31
2022-08-05T14:57:55.962Z,67.53
2022-08-05T15:00:34.702Z,67.54
2022-08-05T15:03:03.149Z,67.84
2022-08-05T15:06:07.803Z,67.95
2022-08-05T15:09:01.295Z,68.19
2022-08-05T15:11:52.264Z,68.35
2022-08-05T15:14:35.680Z,68.35
2022-08-05T15:17:44.342Z,68.55
2022-08-05T15:19:59.651Z,68.75
2022-08-05T15:22:31.808Z,69.00
2022-08-05T15:25:00.423Z,69.06
2022-08-05T15:27:54.798Z,69.22
2022-08-05T15:30:32.426Z,69.33
2022-08-05T15:33:56.940Z,69.43
2022-08-05T15:36:06.233Z,69.62
2022-08-05T15:38:46.943Z,69.79
2022-08-05T15:41:58.484Z,69.86
2022-08-05T15:44:45.703Z,70.30
2022-08-05T15:47:27.272Z,70.28
2022-08-05T15:50:09.423Z,70.37
2022-08-05T15:53:51.147Z,70.27
2022-08-05T23:24:57.832Z,81.33
2022-08-05T23:27:31.554Z,81.31
2022-08-05T23:30:14.865Z,81.41
2022-08-05T23:32:45.336Z,81.39
2022-08-05T23:35:13.907Z,81.44
2022-08-05T23:37:43.901Z,81.40
2022-08-05T23:40:13.748Z,81.37
2022-08-05T23:42:47.475Z,81.42
2022-08-05T23:45:23.645Z,81.20
2022-08-05T23:47:53.897Z,81.27
2022-08-05T23:50:31.748Z,81.54
2022-08-05T23:53:00.909Z,81.39
2022-08-05T23:55:32.916Z,81.25
2022-08-05T23:58:01.156Z,81.09
